Time;durP1;ratioP1;P1;durP2;ratioP2;P2;SDS_P1;SDS_P2;PMS_P1;PMS_P2;Temp;Humidity;BMP_temperature;BMP_pressure;BME280_temperature;BME280_humidity;BME280_pressure;Samples;Min_cycle;Max_cycle;Signal;HPM_P1;HPM_P2
2022/06/07 00:01:58;;;;;;;1.88;1.02;;;;;;;21.31;51.66;101214.28;5089617;28;20028;-61
2022/06/07 00:04:23;;;;;;;1.23;0.90;;;;;;;21.30;51.36;101204.47;5103290;28;20035;-61
2022/06/07 00:06:49;;;;;;;1.58;0.93;;;;;;;21.31;51.59;101205.31;5105054;28;20034;-62
2022/06/07 00:09:14;;;;;;;1.20;1.10;;;;;;;21.31;51.38;101202.63;5104690;28;20032;-62
2022/06/07 00:11:39;;;;;;;1.00;0.90;;;;;;;21.30;51.71;101203.63;5086396;28;20058;-61
2022/06/07 00:14:04;;;;;;;1.65;1.10;;;;;;;21.30;51.27;101192.81;5086488;28;20031;-62
2022/06/07 00:16:30;;;;;;;1.92;1.20;;;;;;;21.23;51.19;101190.81;5104742;28;20020;-61
2022/06/07 00:18:55;;;;;;;1.38;1.00;;;;;;;21.29;51.62;101194.69;5116103;27;20049;-60
2022/06/07 00:21:20;;;;;;;1.25;1.02;;;;;;;21.28;51.93;101198.41;5104714;28;20016;-62
2022/06/07 00:23:46;;;;;;;1.70;1.38;;;;;;;21.25;51.45;101179.00;5086805;28;20058;-62
2022/06/07 00:26:11;;;;;;;1.08;0.90;;;;;;;21.27;51.51;101176.94;5128496;27;20066;-62
2022/06/07 00:28:36;;;;;;;1.30;1.00;;;;;;;21.26;51.29;101172.56;5096807;28;20044;-61
2022/06/07 00:31:02;;;;;;;1.20;1.05;;;;;;;21.27;51.25;101175.06;5118880;28;20039;-61
2022/06/07 00:33:27;;;;;;;1.17;0.75;;;;;;;21.27;51.26;101174.22;5093666;28;20069;-60
2022/06/07 00:35:53;;;;;;;1.60;1.20;;;;;;;21.26;51.07;101170.69;5092098;28;20032;-61
2022/06/07 00:38:18;;;;;;;0.90;0.90;;;;;;;21.26;51.16;101167.16;5090820;28;20083;-62
2022/06/07 00:40:43;;;;;;;1.52;1.05;;;;;;;21.26;51.39;101167.16;5118106;28;20055;-61
2022/06/07 00:43:09;;;;;;;1.25;0.90;;;;;;;21.26;51.22;101169.84;5113315;28;20055;-61
2022/06/07 00:45:36;;;;;;;0.95;0.82;;;;;;;21.26;51.39;101167.16;5117248;28;20468;-61
2022/06/07 00:48:01;;;;;;;1.02;0.93;;;;;;;21.23;51.06;101169.19;5092320;28;20424;-61
2022/06/07 00:50:38;;;;;;;1.70;1.02;;;;;;;21.25;51.17;101170.88;5091390;28;20063;-61
2022/06/07 00:53:04;;;;;;;1.55;1.02;;;;;;;21.23;51.32;101165.63;5092150;28;20059;-61
2022/06/07 00:55:30;;;;;;;1.27;0.93;;;;;;;21.17;51.18;101152.84;5109434;28;20441;-62
2022/06/07 00:57:56;;;;;;;1.35;1.10;;;;;;;21.20;51.30;101160.59;5113188;28;20054;-61
2022/06/07 01:00:23;;;;;;;1.45;1.02;;;;;;;21.23;50.88;101163.75;5118302;28;20016;-61
2022/06/07 01:02:49;;;;;;;0.90;0.88;;;;;;;21.23;51.27;101162.94;5108240;28;20048;-61
2022/06/07 01:05:14;;;;;;;1.17;0.90;;;;;;;21.14;51.23;101143.22;5106315;28;20032;-61
2022/06/07 01:13:07;;;;;;;2.08;1.23;;;;;;;21.17;51.03;101142.03;5113694;28;20042;-61
2022/06/07 01:15:33;;;;;;;1.90;1.30;;;;;;;21.21;51.20;101149.59;5109454;28;20024;-61
2022/06/07 01:17:58;;;;;;;1.65;1.10;;;;;;;21.16;50.99;101132.22;5116288;28;20024;-61
2022/06/07 01:20:24;;;;;;;1.08;1.00;;;;;;;21.20;50.79;101150.63;5105129;28;20062;-62
2022/06/07 01:22:49;;;;;;;1.42;1.02;;;;;;;21.21;51.13;101154.16;5123200;28;20114;-62
2022/06/07 01:25:14;;;;;;;1.50;1.30;;;;;;;21.19;51.00;101148.91;5124163;28;20055;-62
2022/06/07 01:27:40;;;;;;;1.23;1.05;;;;;;;21.17;51.16;101133.91;5109736;28;20031;-62
2022/06/07 01:30:06;;;;;;;1.02;0.80;;;;;;;21.19;50.88;101137.25;5113999;28;20023;-61
2022/06/07 01:32:31;;;;;;;1.52;0.90;;;;;;;21.13;50.96;101128.00;5118114;28;20034;-61
2022/06/07 01:34:57;;;;;;;1.65;1.10;;;;;;;20.97;50.69;101101.91;5102823;28;20453;-61
2022/06/07 01:37:22;;;;;;;1.00;0.80;;;;;;;21.18;50.80;101132.88;5103142;28;20017;-60
2022/06/07 01:42:31;;;;;;;1.17;1.00;;;;;;;21.09;50.65;101121.28;5103223;28;20091;-61
2022/06/07 01:44:57;;;;;;;0.80;0.80;;;;;;;21.17;50.60;101125.78;5108247;28;20027;-61
2022/06/07 01:47:29;;;;;;;1.25;0.88;;;;;;;21.17;50.98;101123.09;5124001;28;20051;-61
2022/06/07 01:49:55;;;;;;;1.00;0.77;;;;;;;21.17;50.80;101120.38;5105086;28;20040;-61
2022/06/07 01:52:24;;;;;;;1.35;1.00;;;;;;;21.16;50.40;101113.31;5103166;28;20077;-61
2022/06/07 01:54:51;;;;;;;;;;;;;;;21.15;50.40;101123.28;5106036;28;20020;-61
2022/06/07 01:57:16;;;;;;;1.10;0.80;;;;;;;21.16;50.59;101116.00;5115451;28;19939;-61
2022/06/07 01:59:42;;;;;;;1.00;0.85;;;;;;;21.15;50.69;101106.19;5117632;28;20027;-61
2022/06/07 02:02:08;;;;;;;1.17;0.90;;;;;;;21.15;50.69;101106.19;5105272;28;20028;-61
2022/06/07 02:04:37;;;;;;;1.10;1.00;;;;;;;21.14;50.75;101108.06;5103413;28;20031;-61
2022/06/07 02:07:04;;;;;;;1.10;1.00;;;;;;;21.14;50.67;101109.91;5117706;28;20476;-61
2022/06/07 02:09:30;;;;;;;1.95;1.52;;;;;;;21.12;50.44;101102.00;5114416;28;20046;-61
2022/06/07 02:11:55;;;;;;;0.75;0.75;;;;;;;21.13;50.55;101098.28;5118892;28;20480;-61
2022/06/07 02:14:20;;;;;;;0.85;0.82;;;;;;;21.14;50.55;101099.09;5111997;28;20024;-61
2022/06/07 02:16:46;;;;;;;1.08;0.98;;;;;;;21.12;50.49;101099.28;5109247;28;20035;-61
2022/06/07 02:19:11;;;;;;;0.82;0.77;;;;;;;21.13;50.41;101098.28;5116072;28;20123;-61
2022/06/07 02:21:38;;;;;;;0.85;0.85;;;;;;;21.13;50.35;101092.84;5116261;28;20583;-61
2022/06/07 02:24:04;;;;;;;1.05;0.88;;;;;;;21.09;50.45;101090.69;5108877;28;20019;-61
2022/06/07 02:26:32;;;;;;;1.30;0.80;;;;;;;21.09;50.76;101085.28;5112348;28;20020;-61
2022/06/07 02:29:00;;;;;;;1.00;0.90;;;;;;;21.12;50.61;101093.06;5120950;28;20020;-61
2022/06/07 02:31:27;;;;;;;0.70;0.70;;;;;;;21.11;50.32;101097.63;5098554;28;20152;-62
2022/06/07 02:33:53;;;;;;;1.08;0.70;;;;;;;21.12;50.25;101087.66;5112654;28;20034;-60
2022/06/07 02:36:18;;;;;;;1.27;0.90;;;;;;;21.11;50.26;101089.50;5092887;28;20034;-61
2022/06/07 02:38:45;;;;;;;0.93;0.80;;;;;;;21.10;50.13;101087.81;5120515;28;20055;-61
2022/06/07 02:41:12;;;;;;;1.33;1.15;;;;;;;21.10;50.45;101093.22;5094462;28;20045;-62
2022/06/07 02:43:37;;;;;;;1.20;0.88;;;;;;;21.10;49.89;101086.97;5114564;28;20088;-61
2022/06/07 02:46:02;;;;;;;0.75;0.73;;;;;;;21.10;50.35;101086.97;5106464;28;20028;-61
2022/06/07 02:48:28;;;;;;;0.73;0.73;;;;;;;21.10;50.52;101081.56;5120867;28;20054;-61
2022/06/07 02:50:54;;;;;;;1.35;1.00;;;;;;;21.10;50.31;101086.97;5118133;28;20035;-61
2022/06/07 02:53:19;;;;;;;1.55;1.00;;;;;;;21.09;50.38;101085.28;5121470;28;20031;-61
2022/06/07 02:55:45;;;;;;;1.40;1.00;;;;;;;21.08;50.59;101089.03;5106436;28;20028;-61
2022/06/07 02:58:10;;;;;;;1.83;1.23;;;;;;;20.98;50.28;101073.00;5108031;28;20024;-61
2022/06/07 03:00:35;;;;;;;0.80;0.80;;;;;;;21.08;50.55;101086.31;5118786;28;20038;-62
2022/06/07 03:03:01;;;;;;;1.67;0.93;;;;;;;21.02;50.56;101077.03;5110508;28;20055;-61
2022/06/07 03:05:26;;;;;;;1.38;1.05;;;;;;;21.06;50.25;101081.06;5120041;28;20506;-61
2022/06/07 03:07:51;;;;;;;1.05;0.95;;;;;;;21.07;50.35;101084.63;5105762;28;20024;-61
2022/06/07 03:10:17;;;;;;;1.65;1.20;;;;;;;21.06;50.22;101083.78;5109222;27;20026;-61
2022/06/07 03:12:42;;;;;;;1.25;1.10;;;;;;;21.04;50.11;101082.28;5087849;28;20032;-61
2022/06/07 03:15:08;;;;;;;1.77;1.10;;;;;;;21.06;50.58;101085.63;5088952;28;20617;-62
2022/06/07 03:17:34;;;;;;;0.90;0.75;;;;;;;20.99;50.41;101077.41;5118993;28;20477;-62
2022/06/07 03:19:59;;;;;;;1.42;0.93;;;;;;;21.04;50.24;101093.09;5118991;28;20091;-61
2022/06/07 03:22:25;;;;;;;0.93;0.80;;;;;;;21.04;50.36;101085.00;5107205;28;20035;-60
2022/06/07 03:24:50;;;;;;;1.63;0.88;;;;;;;21.04;50.33;101093.09;5115681;28;20022;-61
2022/06/07 03:27:16;;;;;;;1.15;1.00;;;;;;;21.05;50.35;101089.38;5111874;28;20020;-61
2022/06/07 03:29:41;;;;;;;1.73;1.45;;;;;;;21.01;50.10;101088.88;5117103;28;20028;-61
2022/06/07 03:32:08;;;;;;;1.40;1.10;;;;;;;21.04;50.31;101090.41;5120179;28;20035;-62
2022/06/07 03:34:34;;;;;;;1.27;1.10;;;;;;;21.03;50.16;101094.13;5112269;28;20034;-61
2022/06/07 03:37:00;;;;;;;1.15;1.05;;;;;;;21.02;50.03;101092.41;5112599;28;20024;-61
2022/06/07 03:39:26;;;;;;;0.60;0.60;;;;;;;21.01;49.91;101088.03;5084091;28;20019;-61
2022/06/07 03:41:51;;;;;;;1.00;0.80;;;;;;;21.01;50.21;101098.84;5116929;28;20451;-61
2022/06/07 03:44:17;;;;;;;1.13;1.02;;;;;;;21.01;50.01;101099.69;5111168;28;20019;-61
2022/06/07 03:46:44;;;;;;;1.10;1.00;;;;;;;21.01;50.39;101094.28;5111470;28;20050;-61
2022/06/07 03:49:09;;;;;;;0.70;0.70;;;;;;;21.02;50.26;101100.53;5113675;28;20041;-61
2022/06/07 03:51:34;;;;;;;1.00;0.80;;;;;;;21.01;49.81;101105.09;5101685;28;20160;-61
2022/06/07 03:54:00;;;;;;;1.05;0.70;;;;;;;21.01;49.88;101099.69;5114516;28;20035;-61
2022/06/07 03:56:25;;;;;;;1.05;0.90;;;;;;;21.01;49.79;101099.69;5111341;28;20513;-60
2022/06/07 03:58:52;;;;;;;1.25;0.80;;;;;;;20.99;49.87;101100.91;5118226;28;20497;-60
2022/06/07 04:01:19;;;;;;;1.42;0.90;;;;;;;21.01;49.95;101104.25;5118942;28;20073;-60
2022/06/07 04:03:46;;;;;;;1.00;0.90;;;;;;;21.00;50.39;101099.88;5110045;27;20020;-60
2022/06/07 04:06:22;;;;;;;0.60;0.60;;;;;;;20.97;50.02;101092.97;5116695;28;20031;-60
2022/06/07 04:08:48;;;;;;;0.75;0.63;;;;;;;20.99;50.12;101100.91;5110769;28;20180;-60
2022/06/07 04:11:16;;;;;;;0.88;0.80;;;;;;;20.99;50.20;101104.44;5127200;27;20027;-60
2022/06/07 04:13:42;;;;;;;0.60;0.60;;;;;;;20.97;49.89;101104.59;5119249;28;20633;-60
2022/06/07 04:16:09;;;;;;;1.10;1.00;;;;;;;20.99;50.25;101103.63;5104833;28;20028;-60
2022/06/07 04:18:34;;;;;;;0.80;0.80;;;;;;;20.99;50.06;101099.03;5086771;28;20027;-61
2022/06/07 04:21:00;;;;;;;0.80;0.80;;;;;;;20.96;49.98;101099.38;5104345;28;20357;-60
2022/06/07 04:23:26;;;;;;;1.10;1.00;;;;;;;20.99;50.17;101103.63;5104270;28;20567;-59
2022/06/07 04:25:51;;;;;;;0.90;0.77;;;;;;;20.99;50.18;101103.63;5104539;28;20024;-61
2022/06/07 04:28:17;;;;;;;1.60;0.93;;;;;;;20.97;49.74;101099.19;5104501;28;20115;-61
2022/06/07 04:30:45;;;;;;;0.88;0.80;;;;;;;20.91;49.82;101090.97;5087769;28;20104;-60
2022/06/07 04:33:11;;;;;;;1.23;0.70;;;;;;;20.97;49.79;101103.78;5104275;28;20080;-60
2022/06/07 04:35:36;;;;;;;0.95;0.75;;;;;;;20.96;50.07;101099.38;5086858;28;20127;-61
2022/06/07 04:38:02;;;;;;;3.35;1.55;;;;;;;20.97;50.41;101106.47;5104532;28;20012;-61
2022/06/07 04:40:27;;;;;;;0.95;0.70;;;;;;;20.96;49.95;101107.50;5104380;28;20074;-61
2022/06/07 04:42:52;;;;;;;1.05;0.70;;;;;;;20.94;49.91;101107.69;5110813;28;20081;-61
2022/06/07 04:45:18;;;;;;;1.20;1.10;;;;;;;20.96;50.14;101110.19;5107551;28;20024;-62
2022/06/07 04:47:45;;;;;;;0.70;0.70;;;;;;;20.95;49.77;101109.38;5104911;28;20032;-61
2022/06/07 04:50:13;;;;;;;0.70;0.70;;;;;;;20.96;50.02;101110.19;5103021;28;20028;-60
2022/06/07 04:52:38;;;;;;;1.13;0.98;;;;;;;20.94;50.27;101107.69;5106414;28;20046;-57
2022/06/07 04:55:04;;;;;;;1.98;0.85;;;;;;;20.95;49.90;101108.53;5108310;28;20032;-61
2022/06/07 04:57:29;;;;;;;0.80;0.80;;;;;;;20.95;50.27;101113.94;5105979;28;20024;-61
2022/06/07 04:59:55;;;;;;;0.80;0.80;;;;;;;20.95;50.26;101108.53;5109072;28;20480;-61
2022/06/07 05:02:21;;;;;;;1.17;0.93;;;;;;;20.95;49.79;101111.22;5104863;28;20046;-61
2022/06/07 05:04:46;;;;;;;0.65;0.65;;;;;;;20.93;49.91;101114.09;5106935;28;20020;-62
2022/06/07 05:07:12;;;;;;;1.05;0.95;;;;;;;20.94;50.15;101115.78;5102452;28;20603;-61
2022/06/07 05:09:37;;;;;;;0.93;0.80;;;;;;;20.94;50.27;101113.09;5103631;28;20089;-61
2022/06/07 05:12:03;;;;;;;1.38;0.98;;;;;;;20.94;49.96;101117.63;5109028;28;20309;-61
2022/06/07 05:14:28;;;;;;;1.05;0.95;;;;;;;20.90;50.33;101109.06;5111312;28;20028;-61
2022/06/07 05:16:53;;;;;;;1.25;1.10;;;;;;;20.93;50.08;101121.34;5113271;28;20012;-61
2022/06/07 05:19:19;;;;;;;1.00;0.90;;;;;;;20.92;50.09;101115.13;5116436;28;20042;-60
2022/06/07 05:21:45;;;;;;;0.73;0.73;;;;;;;20.92;50.24;101120.53;5105618;28;20374;-61
2022/06/07 05:24:11;;;;;;;1.55;0.90;;;;;;;20.93;50.37;101119.50;5108767;28;20028;-61
2022/06/07 05:26:49;;;;;;;0.90;0.80;;;;;;;20.92;50.44;101115.13;5104737;28;20035;-60
2022/06/07 05:29:35;;;;;;;0.90;0.77;;;;;;;20.93;50.28;101121.34;5085656;28;20039;-61
2022/06/07 05:32:00;;;;;;;1.13;0.80;;;;;;;20.92;50.42;101125.09;5108669;28;20401;-60
2022/06/07 05:34:26;;;;;;;1.00;0.90;;;;;;;20.82;50.55;101117.22;5107790;28;20507;-60
2022/06/07 05:36:51;;;;;;;0.80;0.77;;;;;;;20.87;50.47;101116.69;5105603;28;20020;-61
2022/06/07 05:39:28;;;;;;;0.93;0.80;;;;;;;20.86;50.44;101113.13;5104944;28;20043;-60
2022/06/07 05:41:53;;;;;;;1.08;0.98;;;;;;;20.81;50.54;101104.69;5110855;28;20059;-61
2022/06/07 05:44:20;;;;;;;0.82;0.80;;;;;;;20.91;50.69;101131.53;5107271;28;20062;-61
2022/06/07 05:46:46;;;;;;;1.45;0.93;;;;;;;20.89;50.37;101118.16;5105669;28;20042;-61
2022/06/07 05:49:12;;;;;;;0.80;0.80;;;;;;;20.86;50.28;101109.59;5105773;28;20427;-61
2022/06/07 05:51:38;;;;;;;1.05;0.90;;;;;;;20.93;50.28;101126.75;5104598;28;20515;-61
2022/06/07 05:54:04;;;;;;;1.15;0.93;;;;;;;20.93;50.35;101126.75;5103877;28;20024;-61
2022/06/07 05:56:30;;;;;;;0.98;0.88;;;;;;;20.93;50.47;101126.75;5104332;28;20031;-61
2022/06/07 05:58:55;;;;;;;3.63;1.02;;;;;;;20.92;50.68;101120.53;5103173;28;20028;-61
2022/06/07 06:01:20;;;;;;;1.58;1.00;;;;;;;20.90;50.65;101114.47;5105630;28;20024;-61
2022/06/07 06:03:46;;;;;;;1.08;0.95;;;;;;;20.92;50.66;101123.22;5109202;28;20057;-61
2022/06/07 06:06:12;;;;;;;1.15;0.90;;;;;;;20.93;50.51;101118.66;5111086;28;20034;-61
2022/06/07 06:11:23;;;;;;;1.77;1.30;;;;;;;20.93;50.34;101118.66;5110851;28;20035;-62
2022/06/07 06:13:49;;;;;;;1.00;0.90;;;;;;;20.92;50.90;101119.69;5121274;28;20026;-62
2022/06/07 06:16:18;;;;;;;1.50;1.30;;;;;;;20.93;50.40;101124.06;5122104;28;20023;-61
2022/06/07 06:18:45;;;;;;;1.02;0.90;;;;;;;20.92;50.41;101125.94;5120046;28;20466;-61
2022/06/07 06:21:10;;;;;;;1.13;0.98;;;;;;;20.91;50.86;101121.53;5112213;28;20039;-63
2022/06/07 06:23:36;;;;;;;2.30;1.35;;;;;;;20.92;50.61;101122.38;5115259;28;20032;-62
2022/06/07 06:26:01;;;;;;;2.78;1.10;;;;;;;20.89;50.65;101123.56;5111522;28;20028;-62
2022/06/07 06:28:26;;;;;;;1.30;0.90;;;;;;;20.92;50.58;101117.81;5108474;28;20031;-59
2022/06/07 06:30:53;;;;;;;1.20;1.10;;;;;;;20.91;50.51;101116.13;5113277;28;20066;-62
2022/06/07 06:33:18;;;;;;;1.75;1.17;;;;;;;20.93;50.80;101129.47;5125544;28;20038;-61
2022/06/07 06:35:52;;;;;;;1.70;1.20;;;;;;;20.93;50.44;101127.59;5122879;28;20031;-61
2022/06/07 06:38:19;;;;;;;1.25;1.13;;;;;;;20.93;50.85;101122.19;5114353;28;20113;-62
2022/06/07 06:40:45;;;;;;;1.83;1.13;;;;;;;20.93;50.71;101121.34;5108930;28;20421;-62
2022/06/07 06:43:12;;;;;;;1.10;1.00;;;;;;;20.94;50.81;101123.91;5107458;28;20035;-62
2022/06/07 06:45:38;;;;;;;1.58;0.98;;;;;;;20.96;50.62;101124.56;5107536;28;20085;-62
2022/06/07 06:48:03;;;;;;;1.27;1.00;;;;;;;20.95;50.71;101127.44;5106489;28;20031;-61
2022/06/07 06:50:29;;;;;;;1.35;1.00;;;;;;;20.97;50.50;101128.09;5105797;28;20024;-62
2022/06/07 06:52:55;;;;;;;1.92;1.30;;;;;;;20.96;50.42;101131.81;5106134;28;20036;-62
2022/06/07 06:55:21;;;;;;;1.70;1.30;;;;;;;20.94;50.37;101140.13;5106424;28;20016;-62
2022/06/07 06:57:48;;;;;;;1.30;1.13;;;;;;;20.97;50.40;101141.59;5106477;28;20036;-61
2022/06/07 07:00:14;;;;;;;1.48;1.20;;;;;;;20.96;50.72;101148.88;5092538;28;20020;-63
2022/06/07 07:02:39;;;;;;;1.38;1.10;;;;;;;20.97;50.33;101145.16;5116068;28;20036;-62
2022/06/07 07:05:05;;;;;;;1.50;1.20;;;;;;;20.98;50.28;101151.41;5109029;28;20084;-62
2022/06/07 07:07:31;;;;;;;2.00;1.13;;;;;;;20.99;50.64;101152.28;5096679;28;20472;-62
2022/06/07 07:09:57;;;;;;;1.85;1.55;;;;;;;20.99;50.58;101149.56;5114937;27;20038;-63
2022/06/07 07:12:22;;;;;;;1.33;1.20;;;;;;;20.94;50.43;101142.81;5101389;28;20077;-61
2022/06/07 07:14:48;;;;;;;1.90;1.35;;;;;;;21.00;50.28;101148.53;5118454;28;20106;-61
2022/06/07 07:17:13;;;;;;;1.27;1.17;;;;;;;21.00;50.33;101148.53;5119245;27;20088;-59
2022/06/07 07:19:39;;;;;;;1.92;1.30;;;;;;;21.01;50.27;101147.50;5117912;28;20144;-59
2022/06/07 07:22:04;;;;;;;1.52;1.30;;;;;;;21.03;50.19;101140.91;5114055;28;20039;-59
2022/06/07 07:24:29;;;;;;;1.98;1.13;;;;;;;21.05;50.35;101146.13;5113675;28;20469;-59
2022/06/07 07:26:54;;;;;;;1.33;1.00;;;;;;;21.05;50.04;101146.13;5111562;28;20020;-60
2022/06/07 07:29:21;;;;;;;1.25;1.15;;;;;;;21.05;50.11;101146.13;5111115;28;20063;-61
2022/06/07 07:31:46;;;;;;;2.55;1.23;;;;;;;21.06;50.55;101150.53;5120543;28;20028;-61
2022/06/07 07:34:14;;;;;;;2.70;1.42;;;;;;;21.05;50.15;101154.25;5115340;28;20031;-62
2022/06/07 07:36:53;;;;;;;1.33;1.23;;;;;;;21.05;49.95;101157.78;5119507;28;20035;-61
2022/06/07 07:39:19;;;;;;;1.60;1.50;;;;;;;21.01;50.36;101151.06;5098240;28;20024;-61
2022/06/07 07:41:45;;;;;;;1.75;1.40;;;;;;;21.04;50.37;101156.13;5101023;28;20047;-61
2022/06/07 07:44:12;;;;;;;1.45;1.35;;;;;;;21.04;50.40;101168.78;5117374;28;20032;-60
2022/06/07 07:46:39;;;;;;;1.85;1.30;;;;;;;21.03;50.49;101157.16;5119787;28;20032;-61
2022/06/07 07:49:06;;;;;;;1.20;1.10;;;;;;;21.03;50.05;101159.00;5116386;28;20023;-61
2022/06/07 07:51:33;;;;;;;5.10;2.78;;;;;;;21.03;50.41;101159.84;5111450;28;20032;-61
2022/06/07 07:54:00;;;;;;;1.95;1.27;;;;;;;21.01;50.24;101161.88;5115848;28;20027;-62
2022/06/07 07:56:27;;;;;;;2.45;1.10;;;;;;;21.02;50.13;101163.53;5119400;28;20027;-62
2022/06/07 07:58:53;;;;;;;1.40;1.30;;;;;;;21.03;49.96;101172.53;5094789;28;20464;-61
2022/06/07 08:01:21;;;;;;;1.40;1.20;;;;;;;20.95;50.20;101154.47;5111734;28;20080;-62
2022/06/07 08:03:48;;;;;;;1.77;1.63;;;;;;;21.01;50.17;101161.88;5096343;28;20115;-61
2022/06/07 08:06:17;;;;;;;1.55;1.35;;;;;;;21.01;49.94;101171.84;5125013;28;20259;-62
2022/06/07 08:08:43;;;;;;;1.33;1.23;;;;;;;21.01;50.12;101169.13;5106284;28;20031;-60
2022/06/07 08:11:08;;;;;;;1.88;1.65;;;;;;;21.01;50.31;101161.03;5107987;27;20024;-62
2022/06/07 08:13:33;;;;;;;1.58;1.48;;;;;;;21.01;50.04;101164.56;5118876;28;20044;-62
2022/06/07 08:15:59;;;;;;;2.28;1.42;;;;;;;20.99;50.01;101157.69;5113384;28;20016;-61
2022/06/07 08:18:25;;;;;;;1.65;1.48;;;;;;;20.99;50.35;101163.91;5116767;28;20030;-61
2022/06/07 08:20:57;;;;;;;1.83;1.73;;;;;;;21.00;50.23;101156.66;5124723;28;20051;-61
2022/06/07 08:23:22;;;;;;;2.40;1.52;;;;;;;20.99;50.28;101161.22;5098308;28;20028;-62
2022/06/07 08:25:47;;;;;;;1.90;1.50;;;;;;;20.99;50.56;101160.38;5108005;28;20024;-62
2022/06/07 08:28:12;;;;;;;3.38;1.50;;;;;;;20.99;50.15;101163.09;5114825;28;20028;-62
2022/06/07 08:30:43;;;;;;;2.97;1.67;;;;;;;20.93;50.24;101157.34;5119690;27;20059;-66
2022/06/07 08:38:38;;;;;;;1.55;1.40;;;;;;;21.01;50.33;101169.13;5108491;28;20047;-63
2022/06/07 08:41:05;;;;;;;2.08;1.52;;;;;;;21.03;50.50;101172.53;5112212;28;20047;-61
2022/06/07 08:43:30;;;;;;;2.65;1.85;;;;;;;21.02;50.13;101168.94;5089981;28;20020;-60
2022/06/07 08:45:57;;;;;;;4.60;1.95;;;;;;;20.97;50.24;101164.06;5108127;28;20034;-56
2022/06/07 08:48:26;;;;;;;1.80;1.60;;;;;;;21.00;50.34;101167.47;5120952;28;20384;-59
2022/06/07 08:51:20;;;;;;;2.85;1.55;;;;;;;21.02;50.27;101168.13;5112344;28;20016;-59
2022/06/07 08:53:56;;;;;;;1.70;1.33;;;;;;;21.04;50.56;101182.31;5110794;28;20027;-59
2022/06/07 08:56:25;;;;;;;1.95;1.50;;;;;;;21.01;50.35;101183.50;5093268;28;20013;-59
2022/06/07 08:58:51;;;;;;;;;;;;;;;21.00;50.52;101179.09;5104584;28;20024;-58
2022/06/07 09:01:48;;;;;;;1.80;1.70;;;;;;;21.01;50.30;101178.09;5118194;28;20422;-56
2022/06/07 09:04:22;;;;;;;1.70;1.60;;;;;;;20.99;50.60;101176.59;5099822;27;20023;-59
2022/06/07 09:06:56;;;;;;;2.33;1.50;;;;;;;20.98;50.37;101183.84;5117370;27;20031;-59
2022/06/07 09:09:22;;;;;;;2.30;1.60;;;;;;;20.97;50.67;101188.41;5098712;28;20082;-59
2022/06/07 09:14:39;;;;;;;3.28;1.67;;;;;;;20.97;50.34;101193.81;5099127;28;20034;-60
2022/06/07 09:17:12;;;;;;;2.45;1.80;;;;;;;20.99;50.85;101192.81;5110459;27;20103;-59
2022/06/07 09:19:38;;;;;;;1.70;1.55;;;;;;;20.91;50.48;101180.16;5104971;28;20432;-59
2022/06/07 09:22:14;;;;;;;2.38;1.90;;;;;;;20.99;50.79;101196.34;5106660;28;20031;-57
2022/06/07 09:24:50;;;;;;;2.55;1.73;;;;;;;20.98;50.76;101194.66;5103135;28;20020;-59
2022/06/07 09:27:19;;;;;;;3.72;2.65;;;;;;;20.97;50.38;101187.56;5097881;28;20030;-59
2022/06/07 09:29:56;;;;;;;3.03;2.17;;;;;;;20.76;50.45;101163.81;5103646;28;20025;-60
2022/06/07 09:32:24;;;;;;;2.17;1.70;;;;;;;20.93;50.53;101188.94;5103409;28;20186;-55
2022/06/07 09:34:59;;;;;;;2.78;2.10;;;;;;;20.96;50.27;101191.28;5086242;28;20020;-60
2022/06/07 09:38:09;;;;;;;2.60;2.00;;;;;;;20.96;50.36;101191.28;5106213;28;20035;-59
2022/06/07 09:40:46;;;;;;;3.08;1.90;;;;;;;20.96;50.49;101197.53;5089581;28;20058;-59
2022/06/07 09:43:11;;;;;;;2.10;1.90;;;;;;;20.95;50.62;101195.84;5105225;28;20052;-59
2022/06/07 09:45:46;;;;;;;2.03;1.80;;;;;;;20.96;50.42;101189.44;5115364;28;20567;-59
2022/06/07 09:48:37;;;;;;;2.75;1.80;;;;;;;20.95;50.66;101195.84;5109102;28;20023;-59
2022/06/07 09:51:16;;;;;;;4.65;2.00;;;;;;;20.96;50.72;101194.84;5110169;28;20027;-59
2022/06/07 09:53:45;;;;;;;2.83;2.13;;;;;;;20.96;50.64;101200.25;5088742;28;20024;-59
2022/06/07 09:56:31;;;;;;;2.03;1.80;;;;;;;20.97;50.36;101203.78;5095553;28;20028;-59
2022/06/07 09:59:04;;;;;;;2.15;1.92;;;;;;;20.97;50.54;101204.63;5090251;28;20030;-59
2022/06/07 10:01:55;;;;;;;2.47;1.80;;;;;;;20.97;50.20;101195.66;5104708;28;20051;-59
2022/06/07 10:04:36;;;;;;;3.03;2.00;;;;;;;20.98;50.44;101197.34;5095504;28;20588;-59
2022/06/07 10:07:08;;;;;;;2.42;2.00;;;;;;;20.97;50.71;101206.47;5109294;28;20039;-60
2022/06/07 10:09:33;;;;;;;3.00;1.85;;;;;;;20.99;50.25;101198.22;5094003;28;20020;-59
2022/06/07 10:12:15;;;;;;;1.80;1.70;;;;;;;20.97;50.61;101196.50;5120587;28;20384;-60
2022/06/07 10:15:27;;;;;;;1.88;1.77;;;;;;;21.01;50.30;101198.88;5114957;28;20042;-59
2022/06/07 10:18:11;;;;;;;2.33;1.80;;;;;;;21.02;50.33;101200.56;5012388;28;20042;-59
2022/06/07 10:21:09;;;;;;;2.45;1.80;;;;;;;21.02;50.55;101195.16;5003585;28;20033;-59
2022/06/07 10:24:08;;;;;;;2.17;1.73;;;;;;;21.03;50.43;101188.75;5020213;28;20049;-59
2022/06/07 10:27:00;;;;;;;3.03;2.08;;;;;;;21.03;50.19;101189.59;5020439;28;20085;-60
2022/06/07 10:29:40;;;;;;;2.13;1.77;;;;;;;21.03;49.98;101191.44;4991261;28;20099;-59
2022/06/07 10:32:19;;;;;;;2.10;1.90;;;;;;;21.01;50.06;101183.50;5020581;28;20022;-59
2022/06/07 10:34:50;;;;;;;2.47;1.70;;;;;;;21.04;50.08;101185.00;5020033;28;20454;-61
2022/06/07 10:37:24;;;;;;;2.92;1.80;;;;;;;21.06;50.41;101180.25;5004000;28;20034;-59
2022/06/07 10:40:44;;;;;;;2.03;1.60;;;;;;;21.04;50.19;101177.75;5003388;28;20036;-60
2022/06/07 10:43:18;;;;;;;2.33;1.98;;;;;;;21.08;50.29;101194.47;4961536;29;20150;-59
2022/06/07 10:45:44;;;;;;;2.22;2.03;;;;;;;21.08;50.14;101187.19;4945806;29;20492;-59
2022/06/07 10:48:14;;;;;;;2.20;1.88;;;;;;;21.07;50.02;101188.22;4945983;29;20107;-59
2022/06/07 10:50:51;;;;;;;3.53;1.63;;;;;;;21.09;50.18;101179.91;4964469;29;20043;-60
2022/06/07 10:53:21;;;;;;;2.58;1.70;;;;;;;21.10;50.32;101187.00;4948687;29;20027;-59
2022/06/07 10:55:54;;;;;;;2.92;2.10;;;;;;;21.10;50.00;101181.59;5037080;28;20079;-59
2022/06/07 10:58:35;;;;;;;2.75;2.05;;;;;;;21.10;50.13;101182.44;5043643;28;20032;-59
2022/06/07 11:01:01;;;;;;;2.50;1.83;;;;;;;21.10;50.12;101179.72;5054542;28;20061;-59
2022/06/07 11:03:31;;;;;;;2.35;2.15;;;;;;;21.09;50.45;101186.16;5049208;28;20086;-59
2022/06/07 11:12:08;;;;;;;2.20;1.90;;;;;;;21.10;50.51;101178.88;4984653;28;20029;-59
2022/06/07 11:14:40;;;;;;;2.80;1.80;;;;;;;21.09;50.76;101179.91;5008002;28;20037;-59
2022/06/07 11:17:30;;;;;;;2.83;2.17;;;;;;;21.10;50.56;101184.28;5046545;28;20530;-60
2022/06/07 11:20:00;;;;;;;3.15;1.95;;;;;;;21.09;50.79;101174.50;5035444;28;20107;-59
2022/06/07 11:22:31;;;;;;;4.05;3.13;;;;;;;21.02;50.31;101168.94;5021267;28;20033;-65
2022/06/07 11:25:25;;;;;;;2.88;2.30;;;;;;;21.09;50.62;101171.81;5034942;28;20025;-58
2022/06/07 11:27:53;;;;;;;4.40;2.22;;;;;;;21.09;50.66;101167.22;4937338;29;20036;-59
2022/06/07 11:30:33;;;;;;;2.58;2.33;;;;;;;21.11;50.84;101164.34;4923625;29;20071;-58
2022/06/07 11:32:59;;;;;;;2.95;2.40;;;;;;;21.12;50.52;101161.47;4934083;29;20032;-57
2022/06/07 11:35:46;;;;;;;3.42;2.20;;;;;;;21.11;50.95;101169.75;4931030;29;20079;-59
2022/06/07 11:38:17;;;;;;;2.85;2.55;;;;;;;21.14;50.86;101164.00;4936278;29;20044;-59
2022/06/07 11:40:43;;;;;;;3.75;2.40;;;;;;;21.06;50.68;101161.34;4939548;29;20052;-59
2022/06/07 11:43:46;;;;;;;4.22;2.38;;;;;;;21.12;50.80;101166.06;4933369;29;20086;-60
2022/06/07 11:46:32;;;;;;;5.32;3.10;;;;;;;21.12;50.81;101174.16;4974374;28;20038;-60
2022/06/07 11:48:58;;;;;;;6.63;2.83;;;;;;;21.10;50.90;101174.31;5016158;28;20112;-58
2022/06/07 11:51:23;;;;;;;6.25;3.33;;;;;;;21.11;50.42;101177.84;5006806;28;20042;-61
2022/06/07 11:54:01;;;;;;;3.88;2.42;;;;;;;21.12;50.84;101172.28;4987960;28;20076;-63
2022/06/07 11:56:33;;;;;;;5.60;2.97;;;;;;;21.03;50.79;101161.72;4988655;28;20026;-62
2022/06/07 11:59:21;;;;;;;4.38;3.97;;;;;;;21.13;50.60;101178.53;5023472;28;20049;-64
2022/06/07 12:01:49;;;;;;;5.10;3.95;;;;;;;21.12;50.83;101177.72;5024069;28;20053;-66